createdAt,value
2019-03-13T00:00:28.419Z,8.23
2019-03-13T00:01:28.349Z,8.18
2019-03-13T00:02:28.302Z,8.23
2019-03-13T00:03:28.295Z,8.22
2019-03-13T00:04:28.271Z,8.36
2019-03-13T00:05:28.277Z,8.36
2019-03-13T00:06:28.262Z,8.36
2019-03-13T00:07:28.268Z,8.37
2019-03-13T00:08:28.242Z,8.41
2019-03-13T00:09:28.218Z,8.37
2019-03-13T00:10:28.204Z,8.43
2019-03-13T00:11:28.200Z,8.38
2019-03-13T00:12:28.187Z,8.47
2019-03-13T00:13:28.176Z,8.50
2019-03-13T00:14:28.171Z,8.52
2019-03-13T00:15:28.154Z,8.56
2019-03-13T00:16:28.148Z,8.65
2019-03-13T00:17:28.132Z,8.55
2019-03-13T00:18:28.138Z,8.61
2019-03-13T00:19:28.118Z,8.53
2019-03-13T00:20:28.102Z,8.53
2019-03-13T00:21:28.090Z,8.65
2019-03-13T00:22:28.078Z,8.65
2019-03-13T00:23:28.066Z,8.65
2019-03-13T00:24:28.061Z,8.55
2019-03-13T00:25:28.054Z,8.61
2019-03-13T00:26:28.031Z,8.65
2019-03-13T00:27:28.032Z,8.66
2019-03-13T00:28:28.036Z,8.65
2019-03-13T00:29:28.008Z,8.50
2019-03-13T00:30:27.994Z,8.63
2019-03-13T00:31:27.989Z,8.59
2019-03-13T00:32:27.975Z,8.71
2019-03-13T00:33:27.962Z,8.55
2019-03-13T00:34:27.954Z,8.50
2019-03-13T00:35:27.954Z,8.63
2019-03-13T00:36:27.931Z,8.53
2019-03-13T00:37:27.925Z,8.56
2019-03-13T00:38:27.905Z,8.55
2019-03-13T00:39:27.895Z,8.55
2019-03-13T00:40:27.888Z,8.53
2019-03-13T00:41:27.892Z,8.50
2019-03-13T00:42:27.870Z,8.50
2019-03-13T00:43:27.854Z,8.63
2019-03-13T00:44:27.854Z,8.62
2019-03-13T00:45:27.838Z,8.59
2019-03-13T00:46:27.820Z,8.50
2019-03-13T00:47:27.810Z,8.61
2019-03-13T00:48:27.810Z,8.65
2019-03-13T00:49:27.795Z,8.56
2019-03-13T00:50:27.778Z,8.53
2019-03-13T00:51:27.765Z,8.59
2019-03-13T00:52:27.767Z,8.52
2019-03-13T00:53:27.754Z,8.52
2019-03-13T00:54:27.740Z,8.56
2019-03-13T00:55:27.720Z,8.53
2019-03-13T00:56:27.711Z,8.61
2019-03-13T00:57:27.699Z,8.50
2019-03-13T00:58:27.687Z,8.58
2019-03-13T00:59:27.677Z,8.47
2019-03-13T01:00:27.670Z,8.44
2019-03-13T01:01:27.663Z,8.47
2019-03-13T01:02:27.645Z,8.40
2019-03-13T01:03:27.637Z,8.47
2019-03-13T01:04:27.623Z,8.44
2019-03-13T01:05:27.622Z,8.44
2019-03-13T01:06:27.606Z,8.40
2019-03-13T01:07:27.601Z,8.48
2019-03-13T01:08:27.581Z,8.44
2019-03-13T01:09:27.581Z,8.47
2019-03-13T01:10:27.565Z,8.53
2019-03-13T01:11:27.609Z,8.55
2019-03-13T01:12:27.541Z,8.48
2019-03-13T01:13:27.530Z,8.47
2019-03-13T01:14:27.520Z,8.45
2019-03-13T01:15:27.507Z,8.47
2019-03-13T01:16:27.504Z,8.50
2019-03-13T01:17:27.497Z,8.38
2019-03-13T01:18:27.483Z,8.47
2019-03-13T01:19:27.467Z,8.44
2019-03-13T01:20:27.452Z,8.56
2019-03-13T01:21:27.446Z,8.58
2019-03-13T01:22:27.436Z,8.43
2019-03-13T01:23:27.419Z,8.48
2019-03-13T01:24:27.413Z,8.47
2019-03-13T01:25:27.397Z,8.37
2019-03-13T01:26:27.403Z,8.36
2019-03-13T01:27:27.383Z,8.37
2019-03-13T01:28:27.375Z,8.36
2019-03-13T01:29:27.361Z,8.34
2019-03-13T01:30:27.352Z,8.33
2019-03-13T01:31:27.341Z,8.34
2019-03-13T01:32:27.329Z,8.29
2019-03-13T01:33:27.321Z,8.26
2019-03-13T01:34:27.316Z,8.26
2019-03-13T01:35:27.327Z,8.26
2019-03-13T01:36:27.281Z,8.23
2019-03-13T01:37:27.272Z,8.16
2019-03-13T01:38:27.262Z,8.18
2019-03-13T01:39:27.254Z,8.02
2019-03-13T01:40:27.247Z,8.01
2019-03-13T01:41:27.234Z,8.00
2019-03-13T01:42:27.216Z,8.01
2019-03-13T01:43:27.213Z,7.86
2019-03-13T01:44:27.198Z,7.92
2019-03-13T01:45:27.189Z,7.86
2019-03-13T01:46:27.177Z,7.77
2019-03-13T01:47:27.161Z,7.69
2019-03-13T01:48:27.159Z,7.64
2019-03-13T01:49:27.138Z,7.61
2019-03-13T01:50:27.136Z,7.64
2019-03-13T01:51:27.120Z,7.61
2019-03-13T01:52:27.114Z,7.57
2019-03-13T01:53:27.135Z,7.45
2019-03-13T01:54:27.086Z,7.46
2019-03-13T01:55:27.077Z,7.46
2019-03-13T01:56:27.068Z,7.37
2019-03-13T01:57:27.062Z,7.31
2019-03-13T01:58:27.057Z,7.34
2019-03-13T01:59:27.039Z,7.31
2019-03-13T02:00:27.035Z,7.20
2019-03-13T02:01:27.016Z,7.27
2019-03-13T02:02:27.009Z,7.24
2019-03-13T02:03:27.022Z,7.21
2019-03-13T02:04:26.981Z,7.17
2019-03-13T02:05:26.970Z,7.12
2019-03-13T02:06:26.963Z,7.09
2019-03-13T02:07:26.956Z,7.12
2019-03-13T02:08:26.951Z,7.12
2019-03-13T02:09:26.933Z,7.10
2019-03-13T02:10:26.916Z,7.06
2019-03-13T02:11:26.915Z,7.17
2019-03-13T02:12:26.901Z,7.06
2019-03-13T02:13:26.898Z,7.16
2019-03-13T02:14:26.876Z,7.12
2019-03-13T02:15:26.862Z,7.10
2019-03-13T02:16:26.854Z,7.02
2019-03-13T02:17:26.848Z,7.06
2019-03-13T02:18:26.836Z,6.98
2019-03-13T02:19:26.841Z,6.95
2019-03-13T02:20:26.813Z,6.98
2019-03-13T02:21:26.805Z,6.94
2019-03-13T02:22:26.789Z,6.97
2019-03-13T02:23:26.780Z,6.91
2019-03-13T02:24:26.772Z,6.91
2019-03-13T02:25:26.767Z,6.94
2019-03-13T02:26:26.750Z,6.91
2019-03-13T02:27:26.737Z,6.87
2019-03-13T02:28:26.727Z,6.98
2019-03-13T02:29:26.717Z,6.98
2019-03-13T02:30:26.713Z,6.92
2019-03-13T02:31:26.697Z,6.98
2019-03-13T02:32:26.680Z,6.99
2019-03-13T02:33:26.770Z,6.95
2019-03-13T02:34:26.683Z,6.91
2019-03-13T02:35:26.655Z,6.94
2019-03-13T02:36:26.769Z,6.95
2019-03-13T02:37:26.636Z,6.97
2019-03-13T02:38:26.616Z,6.92
2019-03-13T02:39:26.623Z,6.91
2019-03-13T02:40:26.617Z,6.94
2019-03-13T02:41:26.599Z,7.05
2019-03-13T02:42:26.705Z,6.94
2019-03-13T02:43:26.569Z,6.99
2019-03-13T02:44:26.579Z,7.06
2019-03-13T02:45:26.555Z,7.02
2019-03-13T02:46:26.538Z,7.05
2019-03-13T02:47:26.536Z,7.07
2019-03-13T02:48:26.532Z,7.10
2019-03-13T02:49:26.508Z,7.07
2019-03-13T02:50:26.497Z,7.12
2019-03-13T02:51:26.499Z,7.10
2019-03-13T02:52:26.477Z,7.07
2019-03-13T02:53:26.468Z,7.03
2019-03-13T02:54:26.461Z,7.03
2019-03-13T02:55:26.438Z,7.07
2019-03-13T02:56:26.450Z,7.24
2019-03-13T02:57:26.426Z,7.23
2019-03-13T02:58:26.451Z,7.10
2019-03-13T02:59:26.408Z,7.13
2019-03-13T03:00:26.384Z,7.06
2019-03-13T03:01:26.383Z,7.13
2019-03-13T03:02:26.385Z,7.13
2019-03-13T03:03:26.370Z,7.09
2019-03-13T03:04:26.352Z,7.12
2019-03-13T03:05:26.341Z,7.13
2019-03-13T03:06:26.323Z,7.20
2019-03-13T03:07:26.317Z,7.09
2019-03-13T03:08:26.310Z,7.07
2019-03-13T03:09:26.311Z,7.06
2019-03-13T03:10:26.291Z,7.15
2019-03-13T03:11:26.266Z,7.07
2019-03-13T03:12:26.255Z,7.09
2019-03-13T03:13:26.252Z,7.09
2019-03-13T03:14:26.239Z,7.06
2019-03-13T03:15:26.232Z,7.17
2019-03-13T03:16:26.227Z,7.20
2019-03-13T03:17:26.242Z,7.12
2019-03-13T03:18:26.219Z,7.25
2019-03-13T03:19:26.188Z,7.20
2019-03-13T03:20:26.186Z,7.34
2019-03-13T03:21:26.177Z,7.28
2019-03-13T03:22:26.162Z,7.35
2019-03-13T03:23:26.147Z,7.25
2019-03-13T03:24:26.183Z,7.32
2019-03-13T03:25:26.146Z,7.24
2019-03-13T03:26:26.116Z,7.24
2019-03-13T03:27:26.111Z,7.16
2019-03-13T03:28:26.087Z,7.23
2019-03-13T03:29:26.082Z,7.15
2019-03-13T03:30:26.086Z,7.06
2019-03-13T03:31:26.060Z,7.10
2019-03-13T03:32:26.050Z,6.95
2019-03-13T03:33:26.038Z,7.07
2019-03-13T03:34:26.075Z,6.95
2019-03-13T03:35:26.017Z,6.98
2019-03-13T03:36:26.008Z,7.02
2019-03-13T03:37:26.003Z,6.95
2019-03-13T03:38:25.994Z,6.88
2019-03-13T03:39:25.993Z,6.89
2019-03-13T03:40:25.970Z,6.81
2019-03-13T03:41:25.957Z,6.88
2019-03-13T03:42:25.943Z,6.74
2019-03-13T03:43:39.203Z,6.79
2019-03-13T03:44:26.922Z,6.76
2019-03-13T03:45:25.923Z,6.71
2019-03-13T03:46:25.901Z,6.61
2019-03-13T03:47:25.889Z,6.64
2019-03-13T03:48:25.894Z,6.61
2019-03-13T03:49:25.870Z,6.58
2019-03-13T03:50:25.870Z,6.59
2019-03-13T03:51:25.852Z,6.55
2019-03-13T03:52:25.838Z,6.54
2019-03-13T03:53:25.825Z,6.51
2019-03-13T03:54:25.817Z,6.52
2019-03-13T03:55:25.817Z,6.48
2019-03-13T03:56:25.799Z,6.52
2019-03-13T03:57:25.785Z,6.51
2019-03-13T03:58:29.192Z,6.40
2019-03-13T03:59:25.766Z,6.54
2019-03-13T04:00:25.768Z,6.49
2019-03-13T04:01:25.749Z,6.43
2019-03-13T04:02:25.741Z,6.48
2019-03-13T04:03:25.729Z,6.46
2019-03-13T04:04:25.739Z,6.49
2019-03-13T04:05:25.709Z,6.55
2019-03-13T04:06:25.693Z,6.41
2019-03-13T04:07:25.681Z,6.49
2019-03-13T04:08:25.674Z,6.48
2019-03-13T04:09:25.658Z,6.48
2019-03-13T04:10:25.646Z,6.48
2019-03-13T04:11:25.637Z,6.46
2019-03-13T04:12:25.629Z,6.49
2019-03-13T04:13:25.619Z,6.44
2019-03-13T04:14:25.645Z,6.48
2019-03-13T04:15:25.595Z,6.44
2019-03-13T04:16:25.589Z,6.48
2019-03-13T04:17:25.577Z,6.49
2019-03-13T04:18:25.561Z,6.41
2019-03-13T04:19:25.566Z,6.43
2019-03-13T04:20:25.540Z,6.41
2019-03-13T04:21:25.670Z,6.40
2019-03-13T04:22:25.529Z,6.49
2019-03-13T04:23:25.514Z,6.43
2019-03-13T04:24:25.525Z,6.46
2019-03-13T04:25:25.493Z,6.46
2019-03-13T04:26:25.477Z,6.38
2019-03-13T04:27:25.467Z,6.36
2019-03-13T04:28:25.455Z,6.34
2019-03-13T04:29:25.452Z,6.34
2019-03-13T04:30:25.445Z,6.37
2019-03-13T04:31:25.424Z,6.31
2019-03-13T04:32:25.404Z,6.34
2019-03-13T04:33:28.035Z,6.37
2019-03-13T04:34:25.385Z,6.36
2019-03-13T04:35:25.379Z,6.33
2019-03-13T04:36:25.382Z,6.33
2019-03-13T04:37:25.378Z,6.33
2019-03-13T04:38:25.342Z,6.33
2019-03-13T04:39:25.339Z,6.34
2019-03-13T04:40:25.331Z,6.36
2019-03-13T04:41:25.315Z,6.34
2019-03-13T04:42:25.309Z,6.36
2019-03-13T04:43:25.291Z,6.28
2019-03-13T04:44:25.277Z,6.28
2019-03-13T04:45:25.275Z,6.40
2019-03-13T04:46:25.269Z,6.25
2019-03-13T04:47:25.320Z,6.33
2019-03-13T04:48:25.240Z,6.36
2019-03-13T04:49:25.228Z,6.33
2019-03-13T04:50:25.217Z,6.21
2019-03-13T04:51:25.209Z,6.36
2019-03-13T04:52:25.201Z,6.27
2019-03-13T04:53:25.199Z,6.27
2019-03-13T04:54:25.174Z,6.27
2019-03-13T04:55:25.161Z,6.27
2019-03-13T04:56:25.149Z,6.27
2019-03-13T04:57:25.157Z,6.22
2019-03-13T04:58:25.140Z,6.25
2019-03-13T04:59:25.134Z,6.31
2019-03-13T05:00:25.130Z,6.19
2019-03-13T05:01:26.338Z,6.25
2019-03-13T05:02:25.085Z,6.22
2019-03-13T05:03:25.081Z,6.30
2019-03-13T05:04:25.134Z,6.22
2019-03-13T05:05:25.063Z,6.21
2019-03-13T05:06:25.051Z,6.18
2019-03-13T05:07:25.035Z,6.15
2019-03-13T05:08:25.028Z,6.11
2019-03-13T05:09:25.014Z,6.09
2019-03-13T05:10:25.007Z,6.11
2019-03-13T05:11:24.995Z,5.97
2019-03-13T05:12:24.981Z,6.00
2019-03-13T05:13:24.971Z,6.00
2019-03-13T05:14:24.971Z,5.97
2019-03-13T05:15:24.948Z,5.96
2019-03-13T05:16:24.947Z,5.96
2019-03-13T05:17:24.929Z,5.91
2019-03-13T05:18:24.924Z,5.90
2019-03-13T05:19:24.906Z,5.85
2019-03-13T05:20:24.897Z,5.81
2019-03-13T05:21:24.894Z,5.72
2019-03-13T05:22:24.881Z,5.76
2019-03-13T05:23:24.870Z,5.75
2019-03-13T05:24:24.859Z,5.63
2019-03-13T05:25:24.841Z,5.63
2019-03-13T05:26:24.833Z,5.65
2019-03-13T05:27:24.821Z,5.67
2019-03-13T05:28:24.811Z,5.72
2019-03-13T05:29:24.797Z,5.75
2019-03-13T05:30:24.788Z,5.71
2019-03-13T05:31:24.783Z,5.79
2019-03-13T05:32:24.769Z,5.71
2019-03-13T05:33:24.765Z,5.72
2019-03-13T05:34:24.749Z,5.72
2019-03-13T05:35:24.733Z,5.65
2019-03-13T05:36:24.726Z,5.65
2019-03-13T05:37:24.717Z,5.71
2019-03-13T05:38:24.711Z,5.64
2019-03-13T05:39:24.700Z,5.65
2019-03-13T05:40:24.683Z,5.71
2019-03-13T05:41:24.670Z,5.61
2019-03-13T05:42:24.660Z,5.63
2019-03-13T05:43:24.666Z,5.63
2019-03-13T05:44:24.649Z,5.63
2019-03-13T05:45:24.626Z,5.67
2019-03-13T05:46:24.627Z,5.58
2019-03-13T05:47:24.605Z,5.64
2019-03-13T05:48:24.597Z,5.54
2019-03-13T05:49:24.581Z,5.58
2019-03-13T05:50:24.579Z,5.57
2019-03-13T05:51:24.564Z,5.49
2019-03-13T05:52:24.551Z,5.53
2019-03-13T05:53:24.545Z,5.45
2019-03-13T05:54:24.532Z,5.54
2019-03-13T05:55:24.604Z,5.54
2019-03-13T05:56:24.507Z,5.56
2019-03-13T05:57:24.501Z,5.54
2019-03-13T05:58:24.483Z,5.56
2019-03-13T05:59:24.496Z,5.51
2019-03-13T06:00:24.472Z,5.53
2019-03-13T06:01:24.455Z,5.61
2019-03-13T06:02:24.440Z,5.65
2019-03-13T06:03:24.436Z,5.64
2019-03-13T06:04:24.423Z,5.60
2019-03-13T06:05:24.438Z,5.68
2019-03-13T06:06:24.408Z,5.75
2019-03-13T06:07:24.394Z,5.64
2019-03-13T06:08:24.379Z,5.79
2019-03-13T06:09:25.632Z,5.78
2019-03-13T06:10:24.362Z,5.75
2019-03-13T06:11:24.347Z,5.74
2019-03-13T06:12:24.341Z,5.72
2019-03-13T06:13:24.322Z,5.85
2019-03-13T06:14:24.321Z,5.89
2019-03-13T06:15:24.301Z,5.82
2019-03-13T06:16:24.297Z,5.85
2019-03-13T06:17:24.279Z,5.79
2019-03-13T06:18:24.275Z,5.86
2019-03-13T06:19:24.264Z,5.82
2019-03-13T06:20:24.249Z,5.91
2019-03-13T06:21:24.235Z,5.82
2019-03-13T06:22:24.247Z,5.81
2019-03-13T06:23:24.219Z,5.85
2019-03-13T06:24:24.220Z,5.85
2019-03-13T06:25:24.193Z,5.78
2019-03-13T06:26:24.195Z,5.83
2019-03-13T06:27:24.192Z,5.91
2019-03-13T06:28:24.174Z,5.78
2019-03-13T06:29:24.159Z,5.83
2019-03-13T06:30:24.138Z,5.86
2019-03-13T06:31:24.141Z,5.93
2019-03-13T06:32:24.117Z,5.85
2019-03-13T06:33:24.106Z,5.76
2019-03-13T06:34:24.093Z,5.89
2019-03-13T06:35:24.227Z,5.90
2019-03-13T06:36:24.093Z,5.83
2019-03-13T06:37:24.065Z,5.89
2019-03-13T06:38:24.057Z,5.81
2019-03-13T06:39:24.057Z,5.89
2019-03-13T06:40:24.037Z,5.90
2019-03-13T06:41:24.037Z,5.91
2019-03-13T06:42:24.008Z,5.79
2019-03-13T06:43:24.007Z,5.91
2019-03-13T06:44:23.993Z,5.86
2019-03-13T06:45:23.997Z,5.82
2019-03-13T06:46:23.979Z,5.96
2019-03-13T06:47:25.189Z,6.00
2019-03-13T06:48:23.953Z,6.01
2019-03-13T06:49:23.939Z,6.14
2019-03-13T06:50:23.930Z,6.15
2019-03-13T06:51:23.925Z,6.21
2019-03-13T06:52:23.903Z,6.17
2019-03-13T06:53:23.893Z,6.15
2019-03-13T06:54:23.883Z,6.18
2019-03-13T06:55:23.869Z,6.19
2019-03-13T06:56:23.873Z,6.11
2019-03-13T06:57:23.851Z,6.17
2019-03-13T06:58:23.851Z,6.28
2019-03-13T06:59:23.826Z,6.33
2019-03-13T07:00:23.815Z,6.37
2019-03-13T07:01:23.809Z,6.33
2019-03-13T07:02:23.799Z,6.34
2019-03-13T07:03:23.795Z,6.66
2019-03-13T07:04:23.793Z,6.85
2019-03-13T07:05:23.767Z,6.89
2019-03-13T07:06:23.755Z,6.94
2019-03-13T07:07:23.746Z,6.89
2019-03-13T07:08:23.761Z,6.94
2019-03-13T07:09:23.723Z,6.77
2019-03-13T07:10:23.710Z,6.77
2019-03-13T07:11:23.753Z,6.85
2019-03-13T07:12:23.693Z,7.09
2019-03-13T07:13:23.689Z,7.10
2019-03-13T07:14:23.673Z,7.20
2019-03-13T07:15:23.665Z,7.21
2019-03-13T07:16:23.648Z,7.13
2019-03-13T07:17:23.633Z,7.09
2019-03-13T07:18:23.621Z,7.10
2019-03-13T07:19:23.615Z,7.03
2019-03-13T07:20:23.655Z,6.97
2019-03-13T07:21:23.776Z,6.92
2019-03-13T07:22:23.596Z,6.88
2019-03-13T07:23:23.571Z,6.89
2019-03-13T07:24:23.557Z,6.94
2019-03-13T07:25:23.564Z,7.09
2019-03-13T07:26:23.551Z,7.31
2019-03-13T07:27:23.531Z,7.45
2019-03-13T07:28:23.510Z,7.48
2019-03-13T07:29:23.503Z,7.85
2019-03-13T07:30:23.505Z,8.01
2019-03-13T07:31:23.487Z,7.95
2019-03-13T07:32:23.481Z,8.01
2019-03-13T07:33:23.463Z,8.23
2019-03-13T07:34:23.447Z,8.11
2019-03-13T07:35:23.446Z,8.68
2019-03-13T07:36:23.427Z,8.91
2019-03-13T07:37:23.426Z,9.17
2019-03-13T07:38:23.412Z,9.60
2019-03-13T07:39:23.404Z,9.32
2019-03-13T07:40:23.389Z,9.89
2019-03-13T07:41:23.384Z,11.19
2019-03-13T07:42:23.365Z,10.64
2019-03-13T07:43:23.355Z,10.59
2019-03-13T07:44:23.351Z,9.60
2019-03-13T07:45:23.330Z,8.74
2019-03-13T07:46:23.318Z,8.15
2019-03-13T07:47:23.307Z,7.90
2019-03-13T07:48:23.303Z,7.68
2019-03-13T07:49:23.299Z,7.46
2019-03-13T07:50:23.281Z,7.69
2019-03-13T07:51:23.265Z,7.82
2019-03-13T07:52:23.261Z,8.08
2019-03-13T07:53:23.262Z,8.04
2019-03-13T07:54:23.237Z,8.80
2019-03-13T07:55:23.223Z,11.19
2019-03-13T07:56:23.215Z,12.68
2019-03-13T07:57:23.204Z,12.50
2019-03-13T07:58:23.201Z,12.85
2019-03-13T07:59:23.181Z,12.27
2019-03-13T08:00:23.173Z,11.36
2019-03-13T08:01:23.161Z,12.65
2019-03-13T08:02:23.170Z,14.09
2019-03-13T08:03:23.143Z,14.54
2019-03-13T08:04:23.134Z,14.69
2019-03-13T08:05:23.123Z,15.36
2019-03-13T08:06:23.111Z,14.61
2019-03-13T08:07:23.129Z,14.45
2019-03-13T08:08:23.086Z,14.09
2019-03-13T08:09:23.071Z,14.50
2019-03-13T08:10:23.066Z,14.42
2019-03-13T08:11:23.066Z,14.32
2019-03-13T08:12:23.039Z,13.12
2019-03-13T08:13:23.039Z,12.04
2019-03-13T08:14:23.023Z,13.19
2019-03-13T08:15:23.009Z,14.21
2019-03-13T08:16:23.004Z,14.35
2019-03-13T08:17:22.993Z,14.06
2019-03-13T08:18:22.980Z,13.70
2019-03-13T08:19:24.241Z,14.80
2019-03-13T08:20:22.972Z,14.58
2019-03-13T08:21:22.953Z,14.68
2019-03-13T08:22:22.936Z,15.20
2019-03-13T08:23:22.925Z,14.10
2019-03-13T08:24:22.913Z,13.89
2019-03-13T08:25:22.903Z,13.95
2019-03-13T08:26:22.894Z,12.62
2019-03-13T08:27:22.880Z,11.90
2019-03-13T08:28:22.877Z,10.86
2019-03-13T08:29:22.862Z,10.88
2019-03-13T08:30:22.859Z,12.68
2019-03-13T08:31:22.839Z,11.49
2019-03-13T08:32:22.827Z,10.25
2019-03-13T08:33:22.815Z,10.27
2019-03-13T08:34:22.821Z,11.90
2019-03-13T08:35:22.798Z,12.68
2019-03-13T08:36:22.789Z,12.12
2019-03-13T08:37:22.776Z,12.64
2019-03-13T08:38:22.772Z,11.49
2019-03-13T08:39:22.761Z,10.82
2019-03-13T08:40:22.751Z,10.15
2019-03-13T08:41:22.735Z,9.90
2019-03-13T08:42:22.719Z,10.18
2019-03-13T08:43:22.716Z,10.82
2019-03-13T08:44:22.703Z,10.71
2019-03-13T08:45:22.696Z,10.99
2019-03-13T08:46:22.683Z,11.57
2019-03-13T08:47:22.673Z,11.24
2019-03-13T08:48:22.687Z,11.29
2019-03-13T08:49:22.649Z,12.74
2019-03-13T08:50:22.636Z,13.14
2019-03-13T08:51:22.635Z,12.74
2019-03-13T08:52:22.617Z,12.01
2019-03-13T08:53:22.601Z,11.06
2019-03-13T08:54:22.599Z,11.09
2019-03-13T08:55:22.591Z,12.19
2019-03-13T08:56:22.581Z,13.17
2019-03-13T08:57:22.569Z,12.38
2019-03-13T08:58:22.546Z,11.61
2019-03-13T08:59:23.705Z,10.86
2019-03-13T09:00:22.533Z,10.48
2019-03-13T09:01:22.529Z,10.64
2019-03-13T09:02:22.526Z,12.17
2019-03-13T09:03:22.501Z,14.02
2019-03-13T09:04:22.482Z,13.87
2019-03-13T09:05:22.479Z,12.64
2019-03-13T09:06:22.479Z,11.73
2019-03-13T09:07:22.453Z,12.89
2019-03-13T09:08:22.452Z,13.95
2019-03-13T09:09:22.438Z,14.12
2019-03-13T09:10:22.846Z,14.07
2019-03-13T09:11:22.412Z,13.75
2019-03-13T09:12:22.397Z,12.16
2019-03-13T09:13:22.392Z,10.88
2019-03-13T09:14:22.388Z,10.52
2019-03-13T09:15:22.368Z,10.44
2019-03-13T09:16:22.359Z,10.40
2019-03-13T09:17:22.356Z,12.38
2019-03-13T09:18:22.347Z,14.29
2019-03-13T09:19:22.335Z,13.05
2019-03-13T09:20:22.330Z,12.79
2019-03-13T09:21:22.309Z,12.65
2019-03-13T09:22:22.295Z,12.85
2019-03-13T09:23:22.288Z,12.67
2019-03-13T09:24:22.279Z,12.09
2019-03-13T09:25:22.273Z,12.72
2019-03-13T09:26:22.253Z,13.30
2019-03-13T09:27:22.246Z,12.79
2019-03-13T09:28:22.235Z,12.54
2019-03-13T09:29:22.322Z,12.32
2019-03-13T09:30:22.209Z,12.14
2019-03-13T09:31:25.335Z,11.99
2019-03-13T09:32:22.194Z,12.20
2019-03-13T09:33:22.178Z,10.81
2019-03-13T09:34:22.165Z,11.52
2019-03-13T09:35:22.165Z,13.01
2019-03-13T09:36:22.146Z,13.87
2019-03-13T09:37:22.143Z,14.36
2019-03-13T09:38:22.130Z,14.83
2019-03-13T09:39:22.111Z,15.16
2019-03-13T09:40:22.102Z,16.04
2019-03-13T09:41:22.090Z,15.53
2019-03-13T09:42:22.099Z,15.53
2019-03-13T09:43:22.096Z,14.10
2019-03-13T09:44:22.058Z,13.17
2019-03-13T09:45:22.055Z,11.98
2019-03-13T09:46:22.039Z,11.39
2019-03-13T09:47:22.033Z,11.90
2019-03-13T09:48:22.026Z,11.72
2019-03-13T09:49:22.009Z,11.24
2019-03-13T09:50:21.996Z,10.97
2019-03-13T09:51:22.007Z,10.86
2019-03-13T09:52:21.995Z,10.60
2019-03-13T09:53:21.972Z,10.44
2019-03-13T09:54:21.958Z,10.48
2019-03-13T09:55:21.942Z,10.82
2019-03-13T09:56:21.929Z,10.70
2019-03-13T09:57:21.927Z,10.53
2019-03-13T09:58:21.912Z,11.62
2019-03-13T09:59:21.908Z,11.95
2019-03-13T10:00:21.898Z,11.69
2019-03-13T10:01:21.883Z,11.24
2019-03-13T10:02:21.872Z,11.36
2019-03-13T10:03:21.863Z,11.75
2019-03-13T10:04:21.847Z,13.30
2019-03-13T10:05:21.851Z,13.60
2019-03-13T10:06:22.548Z,12.68
2019-03-13T10:07:21.815Z,12.24
2019-03-13T10:08:21.806Z,11.61
2019-03-13T10:09:21.795Z,11.25
2019-03-13T10:10:21.784Z,12.67
2019-03-13T10:11:21.777Z,12.68
2019-03-13T10:12:21.767Z,12.41
2019-03-13T10:13:21.751Z,12.77
2019-03-13T10:14:21.738Z,12.59
2019-03-13T10:15:21.727Z,13.23
2019-03-13T10:16:21.722Z,12.19
2019-03-13T10:17:21.711Z,11.96
2019-03-13T10:18:21.696Z,11.73
2019-03-13T10:19:21.687Z,11.62
2019-03-13T10:20:21.677Z,11.99
2019-03-13T10:21:21.665Z,12.10
2019-03-13T10:22:21.651Z,12.35
2019-03-13T10:23:21.640Z,11.98
2019-03-13T10:24:21.631Z,11.35
2019-03-13T10:25:21.626Z,11.04
2019-03-13T10:26:21.696Z,10.91
2019-03-13T10:27:21.595Z,10.61
2019-03-13T10:28:21.615Z,10.45
2019-03-13T10:29:21.577Z,10.38
2019-03-13T10:30:21.563Z,10.09
2019-03-13T10:31:21.553Z,9.91
2019-03-13T10:32:21.552Z,9.90
2019-03-13T10:33:21.543Z,9.84
2019-03-13T10:34:21.584Z,9.90
2019-03-13T10:35:21.515Z,10.08
2019-03-13T10:36:21.510Z,10.09
2019-03-13T10:37:21.491Z,10.09
2019-03-13T10:38:21.481Z,10.14
2019-03-13T10:39:21.473Z,10.20
2019-03-13T10:40:21.459Z,10.44
2019-03-13T10:41:21.447Z,10.92
2019-03-13T10:42:21.437Z,11.49
2019-03-13T10:43:21.430Z,11.40
2019-03-13T10:44:21.414Z,11.54
2019-03-13T10:45:21.483Z,11.52
2019-03-13T10:46:21.392Z,11.90
2019-03-13T10:47:21.379Z,11.96
2019-03-13T10:48:21.369Z,11.55
2019-03-13T10:49:21.359Z,11.06
2019-03-13T10:50:21.357Z,10.78
2019-03-13T10:51:21.363Z,10.81
2019-03-13T10:52:21.328Z,10.84
2019-03-13T10:53:21.323Z,11.98
2019-03-13T10:54:21.307Z,11.75
2019-03-13T10:55:21.301Z,11.82
2019-03-13T10:56:21.334Z,11.78
2019-03-13T10:57:21.276Z,12.14
2019-03-13T10:58:21.268Z,12.59
2019-03-13T10:59:21.247Z,12.31
2019-03-13T11:00:21.251Z,11.86
2019-03-13T11:01:21.234Z,11.55
2019-03-13T11:02:21.225Z,11.15
2019-03-13T11:03:21.206Z,11.37
2019-03-13T11:04:21.210Z,11.82
2019-03-13T11:05:21.189Z,12.29
2019-03-13T11:06:21.193Z,12.07
2019-03-13T11:07:21.171Z,11.96
2019-03-13T11:08:21.161Z,12.67
2019-03-13T11:09:21.149Z,12.50
2019-03-13T11:10:21.140Z,12.86
2019-03-13T11:11:21.130Z,13.25
2019-03-13T11:12:21.116Z,13.60
2019-03-13T11:13:21.106Z,13.51
2019-03-13T11:14:21.098Z,12.46
2019-03-13T11:15:21.081Z,12.74
2019-03-13T11:16:21.068Z,12.85
2019-03-13T11:17:21.061Z,12.19
2019-03-13T11:18:21.050Z,11.69
2019-03-13T11:19:21.045Z,11.22
2019-03-13T11:20:21.028Z,11.28
2019-03-13T11:21:21.017Z,11.39
2019-03-13T11:22:21.005Z,11.42
2019-03-13T11:23:20.988Z,11.47
2019-03-13T11:24:20.990Z,11.49
2019-03-13T11:25:21.038Z,11.11
2019-03-13T11:26:20.960Z,11.06
2019-03-13T11:27:20.967Z,11.07
2019-03-13T11:28:20.939Z,11.35
2019-03-13T11:29:20.924Z,11.25
2019-03-13T11:30:21.034Z,11.04
2019-03-13T11:31:20.904Z,11.02
2019-03-13T11:32:20.893Z,10.91
2019-03-13T11:33:20.897Z,10.73
2019-03-13T11:34:20.884Z,10.56
2019-03-13T11:35:20.866Z,10.47
2019-03-13T11:36:20.859Z,10.47
2019-03-13T11:37:20.851Z,10.67
2019-03-13T11:38:20.833Z,10.70
2019-03-13T11:39:20.817Z,10.70
2019-03-13T11:40:20.813Z,10.68
2019-03-13T11:41:20.809Z,10.73
2019-03-13T11:42:20.787Z,10.61
2019-03-13T11:43:20.776Z,10.59
2019-03-13T11:44:20.761Z,10.56
2019-03-13T11:45:20.753Z,10.42
2019-03-13T11:46:20.741Z,10.32
2019-03-13T11:47:20.733Z,10.17
2019-03-13T11:48:20.723Z,10.12
2019-03-13T11:49:20.707Z,10.09
2019-03-13T11:50:20.698Z,10.14
2019-03-13T11:51:20.691Z,10.14
2019-03-13T11:52:20.679Z,10.09
2019-03-13T11:53:20.671Z,9.99
2019-03-13T11:54:20.661Z,10.01
2019-03-13T11:55:20.647Z,10.07
2019-03-13T11:56:20.631Z,10.15
2019-03-13T11:57:20.635Z,10.15
2019-03-13T11:58:20.690Z,10.14
2019-03-13T11:59:20.601Z,9.96
2019-03-13T12:00:20.663Z,9.94
2019-03-13T12:01:20.576Z,9.96
2019-03-13T12:02:20.571Z,9.99
2019-03-13T12:03:20.581Z,9.91
2019-03-13T12:04:20.551Z,9.99
2019-03-13T12:05:20.546Z,9.91
2019-03-13T12:06:20.521Z,9.90
2019-03-13T12:07:20.514Z,9.89
2019-03-13T12:08:20.502Z,9.90
2019-03-13T12:09:20.495Z,9.78
2019-03-13T12:10:20.479Z,9.76
2019-03-13T12:11:20.476Z,9.74
2019-03-13T12:12:20.454Z,9.65
2019-03-13T12:13:20.449Z,9.64
2019-03-13T12:14:20.436Z,9.56
2019-03-13T12:15:20.427Z,9.64
2019-03-13T12:16:20.437Z,9.60
2019-03-13T12:17:20.401Z,9.57
2019-03-13T12:18:20.392Z,9.60
2019-03-13T12:19:20.386Z,9.61
2019-03-13T12:20:20.377Z,9.57
2019-03-13T12:21:20.374Z,9.65
2019-03-13T12:22:20.354Z,9.66
2019-03-13T12:23:20.342Z,9.65
2019-03-13T12:24:20.326Z,9.64
2019-03-13T12:25:20.315Z,9.54
2019-03-13T12:26:20.306Z,9.53
2019-03-13T12:27:20.302Z,9.57
2019-03-13T12:28:20.281Z,9.61
2019-03-13T12:29:20.291Z,9.57
2019-03-13T12:30:20.259Z,9.61
2019-03-13T12:31:20.259Z,9.65
2019-03-13T12:32:20.243Z,9.66
2019-03-13T12:33:20.235Z,9.60
2019-03-13T12:34:20.219Z,9.72
2019-03-13T12:35:20.214Z,9.75
2019-03-13T12:36:20.215Z,9.75
2019-03-13T12:37:20.210Z,9.74
2019-03-13T12:38:20.179Z,9.76
2019-03-13T12:39:20.172Z,9.72
2019-03-13T12:40:20.175Z,9.69
2019-03-13T12:41:20.151Z,9.66
2019-03-13T12:42:20.135Z,9.53
2019-03-13T12:43:20.133Z,9.64
2019-03-13T12:44:20.127Z,9.58
2019-03-13T12:45:20.102Z,9.57
2019-03-13T12:46:20.104Z,9.56
2019-03-13T12:47:20.096Z,9.54
2019-03-13T12:48:20.073Z,9.57
2019-03-13T12:49:20.067Z,9.53
2019-03-13T12:50:20.054Z,9.60
2019-03-13T12:51:20.042Z,9.48
2019-03-13T12:52:20.034Z,9.51
2019-03-13T12:53:20.034Z,9.46
2019-03-13T12:54:20.009Z,9.43
2019-03-13T12:55:20.000Z,9.46
2019-03-13T12:56:19.992Z,9.48
2019-03-13T12:57:19.973Z,9.47
2019-03-13T12:58:19.960Z,9.47
2019-03-13T12:59:19.954Z,9.43
2019-03-13T13:00:19.954Z,9.50
2019-03-13T13:01:19.930Z,9.51
2019-03-13T13:02:19.934Z,9.43
2019-03-13T13:03:19.911Z,9.53
2019-03-13T13:04:19.903Z,9.51
2019-03-13T13:05:19.896Z,9.46
2019-03-13T13:06:19.893Z,9.36
2019-03-13T13:07:19.871Z,9.32
2019-03-13T13:08:19.863Z,9.33
2019-03-13T13:09:19.877Z,9.38
2019-03-13T13:10:19.845Z,9.33